KAOH/AOH METAR and TAF weather

Enter ICAO airport designator
Station Type Date Time Source
KAOH METAR 2021/03/08 02:53 UTC NOAA

KAOH 080253Z AUTO 17005KT 10SM CLR 00/M11 A3042 RMK AO2 SLP314 T00001111 52005 $


Station Type Date Time Source
KAOH Decoded METAR 2021/03/08 02:53 UTC NOAA

LIMA ALLEN COUNTY AIRPORT, OH, United States (KAOH) 40-42N 84-01W 296M
Mar 07, 2021 - 09:53 PM EST / 2021.03.08 0253 UTC
Wind: from the S (170 degrees) at 6 MPH (5 KT):0
Visibility: 10 mile(s):0
Sky conditions: clear
Temperature: 32.0 F (0.0 C)
Windchill: 26 F (-3 C):1
Dew Point: 12.0 F (-11.1 C)
Relative Humidity: 42%
Pressure (altimeter): 30.42 in. Hg (1030 hPa)
Pressure tendency: 0.01 inches (0.5 hPa) higher than three hours ago
ob: KAOH 080253Z AUTO 17005KT 10SM CLR 00/M11 A3042 RMK AO2 SLP314 T00001111 52005
cycle: 3

Station Type Date Time Source
KAOH TAF UTC NOAA

Error!

Example: see airport list